Terminal Aerodrome Forecast
Issued by NWS

Home | Current Version | Previous Version | Text Only | Print | Product List | Glossary On
Versions: 1 2 3 4 5 6 7 8 9 10 11 12 13 14 15 16 17 18 19 20 21 22 23 24 25 26 27 28 29 30 31 32
000
FTUS45 KREV 231120
TAFTRK
TAF
KTRK 231120Z 2312/2412 00000KT 1/2SM FG BKN002
     FM231600 22007KT P6SM SCT040 BKN070
     FM231900 21010G18KT P6SM -SHRA VCTS BKN040CB OVC060
     FM232300 24011G15KT P6SM SCT050 SCT100
     FM240300 VRB04KT P6SM SKC
     FM240900 00000KT 1/2SM FG BKN002=

USA.gov is the U.S. government's official web portal to all federal, state and local government web resources and services.